createdAt,value
2019-05-18T00:02:43.394Z,99.9
2019-05-18T00:07:45.825Z,99.9
2019-05-18T00:12:48.288Z,99.9
2019-05-18T00:17:50.703Z,99.9
2019-05-18T00:32:58.057Z,99.9
2019-05-18T00:38:00.477Z,99.9
2019-05-18T00:43:02.907Z,99.9
2019-05-18T00:48:05.361Z,99.9
2019-05-18T00:53:07.822Z,99.9
2019-05-18T00:58:10.218Z,99.9
2019-05-18T01:03:12.716Z,99.9
2019-05-18T01:08:15.119Z,99.9
2019-05-18T01:13:17.550Z,99.9
2019-05-18T01:18:19.996Z,99.9
2019-05-18T01:23:22.444Z,99.9
2019-05-18T01:28:24.904Z,99.9
2019-05-18T01:33:27.406Z,99.9
2019-05-18T01:38:29.765Z,99.9
2019-05-18T01:43:32.284Z,99.9
2019-05-18T01:48:34.638Z,99.9
2019-05-18T01:53:37.125Z,99.9
2019-05-18T01:58:39.515Z,99.9
2019-05-18T02:03:41.943Z,99.9
2019-05-18T02:08:44.416Z,99.9
2019-05-18T02:13:46.844Z,99.9
2019-05-18T02:18:49.262Z,99.9
2019-05-18T02:23:51.739Z,99.9
2019-05-18T02:28:54.151Z,99.9
2019-05-18T02:33:56.665Z,99.9
2019-05-18T02:38:59.068Z,99.9
2019-05-18T02:44:01.501Z,99.9
2019-05-18T02:49:03.976Z,99.9
2019-05-18T02:54:06.562Z,99.9
2019-05-18T02:59:08.806Z,99.9
2019-05-18T03:04:11.236Z,99.9
2019-05-18T03:09:13.666Z,99.9
2019-05-18T03:14:16.140Z,99.9
2019-05-18T03:19:18.618Z,99.9
2019-05-18T03:24:21.031Z,99.9
2019-05-18T03:29:23.447Z,99.9
2019-05-18T03:34:25.895Z,99.9
2019-05-18T03:39:28.359Z,99.9
2019-05-18T03:44:30.761Z,99.9
2019-05-18T03:49:33.332Z,99.9
2019-05-18T03:54:35.655Z,99.9
2019-05-18T03:59:38.104Z,99.9
2019-05-18T04:04:40.538Z,99.9
2019-05-18T04:09:42.961Z,99.9
2019-05-18T04:14:45.421Z,99.9
2019-05-18T04:19:47.846Z,99.9
2019-05-18T04:24:50.360Z,99.9
2019-05-18T04:29:52.795Z,99.9
2019-05-18T04:34:55.168Z,99.9
2019-05-18T04:39:57.627Z,99.9
2019-05-18T04:45:00.180Z,99.9
2019-05-18T04:50:05.521Z,99.9
2019-05-18T04:55:04.986Z,99.9
2019-05-18T05:00:07.418Z,99.9
2019-05-18T05:05:10.000Z,99.9
2019-05-18T05:10:12.261Z,99.9
2019-05-18T05:15:14.683Z,99.9
2019-05-18T05:20:19.970Z,99.9
2019-05-18T05:25:19.613Z,99.9
2019-05-18T05:30:22.036Z,99.9
2019-05-18T05:35:24.579Z,99.9
2019-05-18T05:40:26.900Z,99.9
2019-05-18T05:45:29.339Z,99.9
2019-05-18T05:50:35.658Z,99.9
2019-05-18T05:55:34.200Z,99.9
2019-05-18T06:00:36.704Z,99.9
2019-05-18T06:05:39.165Z,99.9
2019-05-18T06:10:41.560Z,99.9
2019-05-18T06:15:43.959Z,99.9
2019-05-18T06:20:51.255Z,99.9
2019-05-18T06:25:48.843Z,99.9
2019-05-18T06:30:51.291Z,99.9
2019-05-18T06:35:53.886Z,99.9
2019-05-18T06:40:56.173Z,99.9
2019-05-18T06:45:58.621Z,99.9
2019-05-18T06:51:06.996Z,99.9
2019-05-18T06:56:03.524Z,99.9
2019-05-18T07:01:05.909Z,99.9
2019-05-18T07:06:08.447Z,99.9
2019-05-18T07:11:10.801Z,99.9
2019-05-18T07:16:13.244Z,99.9
2019-05-18T07:21:22.105Z,99.9
2019-05-18T07:26:18.137Z,99.9
2019-05-18T07:31:20.569Z,99.9
2019-05-18T07:36:22.996Z,99.9
2019-05-18T07:41:25.512Z,99.9
2019-05-18T07:46:27.899Z,99.9
2019-05-18T07:51:36.806Z,99.9
2019-05-18T07:56:32.773Z,99.9
2019-05-18T08:01:35.277Z,99.9
2019-05-18T08:06:37.685Z,99.9
2019-05-18T08:11:40.155Z,99.9
2019-05-18T08:16:42.531Z,99.9
2019-05-18T08:21:53.018Z,99.9
2019-05-18T08:26:47.566Z,99.9
2019-05-18T08:31:49.890Z,99.9
2019-05-18T08:36:52.346Z,99.9
2019-05-18T08:41:54.740Z,99.9
2019-05-18T08:46:57.203Z,99.9
2019-05-18T08:52:07.749Z,99.9
2019-05-18T08:57:02.088Z,99.9
2019-05-18T09:02:04.539Z,99.9
2019-05-18T09:07:06.998Z,99.9
2019-05-18T09:12:09.395Z,99.9
2019-05-18T09:17:11.867Z,99.9
2019-05-18T09:22:22.706Z,99.9
2019-05-18T09:27:16.709Z,99.9
2019-05-18T09:32:19.166Z,99.9
2019-05-18T09:37:21.700Z,99.9
2019-05-18T09:42:24.017Z,99.9
2019-05-18T09:47:26.488Z,99.9
2019-05-18T09:52:43.928Z,99.9
2019-05-18T09:57:31.371Z,99.9
2019-05-18T10:02:33.845Z,99.9
2019-05-18T10:07:36.238Z,99.9
2019-05-18T10:12:38.771Z,99.9
2019-05-18T10:17:41.207Z,99.9
2019-05-18T10:22:53.773Z,97.3
2019-05-18T10:27:46.028Z,97.6
2019-05-18T10:32:48.436Z,97.4
2019-05-18T10:37:50.986Z,91.4
2019-05-18T10:42:53.364Z,93.1
2019-05-18T10:47:55.776Z,91.7
2019-05-18T10:52:58.233Z,92.2
2019-05-18T10:58:00.630Z,85.9
2019-05-18T11:03:03.192Z,83.7
2019-05-18T11:08:05.538Z,79.5
2019-05-18T11:13:08.007Z,77.9
2019-05-18T11:18:10.421Z,76.9
2019-05-18T11:23:12.874Z,73.7
2019-05-18T11:28:15.402Z,70.7
2019-05-18T11:33:17.724Z,71.5
2019-05-18T11:38:20.180Z,70.6
2019-05-18T11:43:22.618Z,67.7
2019-05-18T11:48:25.066Z,62.2
2019-05-18T11:53:27.472Z,65.4
2019-05-18T11:58:29.925Z,62.6
2019-05-18T12:03:32.500Z,60.8
2019-05-18T12:08:34.826Z,62.3
2019-05-18T12:13:37.260Z,61.3
2019-05-18T12:18:39.694Z,60.3
2019-05-18T12:23:42.257Z,60.4
2019-05-18T12:28:44.681Z,59
2019-05-18T12:33:47.013Z,58.3
2019-05-18T12:38:49.448Z,56.7
2019-05-18T12:43:51.888Z,55.9
2019-05-18T12:48:54.346Z,55.5
2019-05-18T12:53:56.772Z,53.3
2019-05-18T12:58:59.210Z,53
2019-05-18T13:04:01.701Z,51.9
2019-05-18T13:09:04.111Z,51.5
2019-05-18T13:14:06.633Z,50.7
2019-05-18T13:19:08.989Z,50.3
2019-05-18T13:24:11.444Z,48.9
2019-05-18T13:29:13.853Z,50.2
2019-05-18T13:34:16.344Z,49.7
2019-05-18T13:39:18.821Z,47.9
2019-05-18T13:44:21.193Z,47.2
2019-05-18T13:49:23.659Z,46.5
2019-05-18T13:54:26.255Z,46
2019-05-18T13:59:28.518Z,43.6
2019-05-18T14:09:33.605Z,42.9
2019-05-18T14:14:35.886Z,42.3
2019-05-18T14:19:38.375Z,40.4
2019-05-18T14:24:40.757Z,41.5
2019-05-18T14:29:43.231Z,40.1
2019-05-18T14:34:45.614Z,38.3
2019-05-18T14:39:48.056Z,38.1
2019-05-18T14:44:50.485Z,36.9
2019-05-18T14:49:52.916Z,37.1
2019-05-18T14:54:55.510Z,35.5
2019-05-18T15:00:01.433Z,34.2
2019-05-18T15:05:00.303Z,33.7
2019-05-18T15:10:02.759Z,33
2019-05-18T15:15:05.155Z,32.4
2019-05-18T15:20:07.643Z,32.9
2019-05-18T15:25:10.069Z,32.2
2019-05-18T15:30:12.459Z,31.8
2019-05-18T15:35:14.917Z,30.8
2019-05-18T15:40:17.355Z,30.5
2019-05-18T15:45:19.785Z,30.3
2019-05-18T15:50:22.359Z,30
2019-05-18T15:55:24.673Z,29.1
2019-05-18T16:00:27.146Z,28.3
2019-05-18T16:05:29.556Z,28.7
2019-05-18T16:10:32.022Z,29
2019-05-18T16:15:34.440Z,29.1
2019-05-18T16:20:36.905Z,29.7
2019-05-18T16:25:39.321Z,30.6
2019-05-18T16:30:41.759Z,31.5
2019-05-18T16:35:44.216Z,33.2
2019-05-18T16:40:46.646Z,35.7
2019-05-18T16:45:49.115Z,37.5
2019-05-18T16:50:51.567Z,38.1
2019-05-18T16:55:54.085Z,38.4
2019-05-18T17:00:56.436Z,39.2
2019-05-18T17:05:58.905Z,40.1
2019-05-18T17:11:01.301Z,41.1
2019-05-18T17:16:03.756Z,41.5
2019-05-18T17:21:06.193Z,42.2
2019-05-18T17:26:08.668Z,42.8
2019-05-18T17:31:11.089Z,43.3
2019-05-18T17:36:13.529Z,43.6
2019-05-18T17:41:16.038Z,44
2019-05-18T17:46:18.426Z,44.5
2019-05-18T17:51:20.864Z,44.8
2019-05-18T17:56:23.308Z,45.2
2019-05-18T18:01:25.741Z,46
2019-05-18T18:06:28.159Z,46.4
2019-05-18T18:11:30.595Z,46.8
2019-05-18T18:16:33.051Z,47.5
2019-05-18T18:21:35.524Z,47.8
2019-05-18T18:26:37.974Z,48.4
2019-05-18T18:31:40.368Z,49
2019-05-18T18:36:42.811Z,49.4
2019-05-18T18:41:45.263Z,49.8
2019-05-18T18:46:47.712Z,50.2
2019-05-18T18:51:50.183Z,50.5
2019-05-18T18:56:52.626Z,50.8
2019-05-18T19:01:55.021Z,51.1
2019-05-18T19:06:57.470Z,51.4
2019-05-18T19:11:59.897Z,52
2019-05-18T19:17:02.404Z,52.7
2019-05-18T19:22:04.798Z,53
2019-05-18T19:27:07.245Z,53.5
2019-05-18T19:32:09.652Z,53.8
2019-05-18T19:37:12.114Z,54.1
2019-05-18T19:42:14.546Z,54.8
2019-05-18T19:47:16.977Z,55.1
2019-05-18T19:52:19.437Z,55.5
2019-05-18T19:57:21.935Z,56
2019-05-18T20:02:24.296Z,56.5
2019-05-18T20:07:26.751Z,57
2019-05-18T20:12:29.182Z,57.3
2019-05-18T20:17:31.617Z,57.6
2019-05-18T20:22:34.073Z,57.9
2019-05-18T20:27:36.597Z,58.3
2019-05-18T20:32:39.010Z,58.8
2019-05-18T20:37:41.472Z,59.3
2019-05-18T20:42:43.811Z,60.2
2019-05-18T20:47:46.378Z,61.1
2019-05-18T20:52:48.714Z,61.7
2019-05-18T20:57:51.165Z,62.6
2019-05-18T21:02:53.572Z,64.1
2019-05-18T21:07:56.060Z,64.8
2019-05-18T21:12:58.463Z,66.1
2019-05-18T21:18:01.061Z,67.3
2019-05-18T21:23:03.400Z,68.2
2019-05-18T21:28:05.808Z,70
2019-05-18T21:33:08.242Z,72
2019-05-18T21:38:10.671Z,74
2019-05-18T21:43:13.103Z,75.5
2019-05-18T21:48:15.563Z,76.2
2019-05-18T21:53:18.021Z,76.7
2019-05-18T21:58:20.428Z,77.3
2019-05-18T22:03:22.923Z,78.3
2019-05-18T22:08:25.339Z,79.6
2019-05-18T22:13:27.770Z,81.5
2019-05-18T22:18:30.199Z,81.8
2019-05-18T22:23:32.643Z,83.2
2019-05-18T22:28:35.097Z,84.2
2019-05-18T22:33:37.508Z,85.3
2019-05-18T22:38:39.971Z,86.7
2019-05-18T22:43:42.416Z,88
2019-05-18T22:48:44.842Z,89.4
2019-05-18T22:53:47.381Z,90.3
2019-05-18T22:58:49.730Z,91.1
2019-05-18T23:03:52.289Z,91.5
2019-05-18T23:08:54.756Z,91.8
2019-05-18T23:13:57.043Z,92.2
2019-05-18T23:18:59.479Z,92.6
2019-05-18T23:29:04.362Z,92.6
2019-05-18T23:34:06.873Z,92.6
2019-05-18T23:39:09.284Z,92.9
2019-05-18T23:44:11.754Z,93
2019-05-18T23:49:14.131Z,94
2019-05-18T23:54:16.559Z,94.7
2019-05-18T23:59:19.027Z,94.8
